sensor_id;sensor_type;location;lat;lon;timestamp;P1;durP1;ratioP1;P2;durP2;ratioP2
12467;SDS011;57850;52.922;6.256;2023-07-22T00:01:39;13.32;;;7.55;;
12467;SDS011;57850;52.922;6.256;2023-07-22T00:04:07;16.25;;;7.28;;
12467;SDS011;57850;52.922;6.256;2023-07-22T00:06:33;10.98;;;7.30;;
12467;SDS011;57850;52.922;6.256;2023-07-22T00:09:00;12.15;;;7.70;;
12467;SDS011;57850;52.922;6.256;2023-07-22T00:11:27;14.88;;;7.93;;
12467;SDS011;57850;52.922;6.256;2023-07-22T00:13:53;16.45;;;7.78;;
12467;SDS011;57850;52.922;6.256;2023-07-22T00:16:20;11.50;;;6.95;;
12467;SDS011;57850;52.922;6.256;2023-07-22T00:18:47;11.15;;;6.75;;
12467;SDS011;57850;52.922;6.256;2023-07-22T00:21:15;11.52;;;6.85;;
12467;SDS011;57850;52.922;6.256;2023-07-22T00:23:42;10.85;;;6.50;;
12467;SDS011;57850;52.922;6.256;2023-07-22T00:26:11;12.57;;;7.35;;
12467;SDS011;57850;52.922;6.256;2023-07-22T00:28:37;11.60;;;6.60;;
12467;SDS011;57850;52.922;6.256;2023-07-22T00:31:04;12.88;;;7.30;;
12467;SDS011;57850;52.922;6.256;2023-07-22T00:33:31;12.18;;;7.47;;
12467;SDS011;57850;52.922;6.256;2023-07-22T00:35:58;13.20;;;6.97;;
12467;SDS011;57850;52.922;6.256;2023-07-22T00:38:25;11.57;;;7.05;;
12467;SDS011;57850;52.922;6.256;2023-07-22T00:40:52;11.05;;;6.22;;
12467;SDS011;57850;52.922;6.256;2023-07-22T00:43:19;9.93;;;6.57;;
12467;SDS011;57850;52.922;6.256;2023-07-22T00:45:46;8.27;;;6.20;;
12467;SDS011;57850;52.922;6.256;2023-07-22T00:48:13;10.02;;;6.75;;
12467;SDS011;57850;52.922;6.256;2023-07-22T00:50:40;11.35;;;6.35;;
12467;SDS011;57850;52.922;6.256;2023-07-22T00:53:07;11.52;;;6.70;;
12467;SDS011;57850;52.922;6.256;2023-07-22T00:55:35;10.95;;;6.25;;
12467;SDS011;57850;52.922;6.256;2023-07-22T00:58:05;10.45;;;6.47;;
12467;SDS011;57850;52.922;6.256;2023-07-22T01:00:31;10.77;;;7.15;;
12467;SDS011;57850;52.922;6.256;2023-07-22T01:02:58;12.40;;;6.70;;
12467;SDS011;57850;52.922;6.256;2023-07-22T01:05:26;12.35;;;6.25;;
12467;SDS011;57850;52.922;6.256;2023-07-22T01:07:53;10.57;;;6.63;;
12467;SDS011;57850;52.922;6.256;2023-07-22T01:10:21;9.85;;;6.10;;
12467;SDS011;57850;52.922;6.256;2023-07-22T01:12:49;11.18;;;5.97;;
12467;SDS011;57850;52.922;6.256;2023-07-22T01:15:16;11.63;;;6.43;;
12467;SDS011;57850;52.922;6.256;2023-07-22T01:17:43;10.07;;;6.43;;
12467;SDS011;57850;52.922;6.256;2023-07-22T01:20:11;12.85;;;6.07;;
12467;SDS011;57850;52.922;6.256;2023-07-22T01:22:38;13.80;;;6.03;;
12467;SDS011;57850;52.922;6.256;2023-07-22T01:25:09;8.68;;;5.70;;
12467;SDS011;57850;52.922;6.256;2023-07-22T01:27:36;11.55;;;6.10;;
12467;SDS011;57850;52.922;6.256;2023-07-22T01:30:03;10.02;;;6.25;;
12467;SDS011;57850;52.922;6.256;2023-07-22T01:32:31;10.48;;;6.38;;
12467;SDS011;57850;52.922;6.256;2023-07-22T01:34:58;10.80;;;6.30;;
12467;SDS011;57850;52.922;6.256;2023-07-22T01:37:25;9.05;;;5.95;;
12467;SDS011;57850;52.922;6.256;2023-07-22T01:39:51;13.18;;;7.13;;
12467;SDS011;57850;52.922;6.256;2023-07-22T01:42:19;12.07;;;6.35;;
12467;SDS011;57850;52.922;6.256;2023-07-22T01:44:46;8.25;;;5.20;;
12467;SDS011;57850;52.922;6.256;2023-07-22T01:47:12;12.90;;;5.50;;
12467;SDS011;57850;52.922;6.256;2023-07-22T01:49:39;12.50;;;6.15;;
12467;SDS011;57850;52.922;6.256;2023-07-22T01:52:06;10.75;;;6.28;;
12467;SDS011;57850;52.922;6.256;2023-07-22T01:54:33;10.02;;;5.95;;
12467;SDS011;57850;52.922;6.256;2023-07-22T01:56:59;11.95;;;6.43;;
12467;SDS011;57850;52.922;6.256;2023-07-22T01:59:27;13.85;;;6.72;;
12467;SDS011;57850;52.922;6.256;2023-07-22T02:01:54;11.23;;;6.57;;
12467;SDS011;57850;52.922;6.256;2023-07-22T02:04:20;11.75;;;6.53;;
12467;SDS011;57850;52.922;6.256;2023-07-22T02:06:47;12.52;;;5.95;;
12467;SDS011;57850;52.922;6.256;2023-07-22T02:09:14;10.00;;;6.00;;
12467;SDS011;57850;52.922;6.256;2023-07-22T02:11:41;11.32;;;6.20;;
12467;SDS011;57850;52.922;6.256;2023-07-22T02:14:08;9.88;;;5.93;;
12467;SDS011;57850;52.922;6.256;2023-07-22T02:16:36;8.30;;;5.85;;
12467;SDS011;57850;52.922;6.256;2023-07-22T02:19:03;10.40;;;5.85;;
12467;SDS011;57850;52.922;6.256;2023-07-22T02:21:30;9.73;;;5.80;;
12467;SDS011;57850;52.922;6.256;2023-07-22T02:23:56;9.50;;;6.60;;
12467;SDS011;57850;52.922;6.256;2023-07-22T02:26:23;10.43;;;5.88;;
12467;SDS011;57850;52.922;6.256;2023-07-22T02:28:49;11.02;;;6.40;;
12467;SDS011;57850;52.922;6.256;2023-07-22T02:31:16;9.88;;;5.35;;
12467;SDS011;57850;52.922;6.256;2023-07-22T02:33:44;9.27;;;5.60;;
12467;SDS011;57850;52.922;6.256;2023-07-22T02:36:11;11.32;;;6.25;;
12467;SDS011;57850;52.922;6.256;2023-07-22T02:38:38;9.30;;;5.50;;
12467;SDS011;57850;52.922;6.256;2023-07-22T02:41:05;9.82;;;5.65;;
12467;SDS011;57850;52.922;6.256;2023-07-22T02:43:33;9.35;;;5.22;;
12467;SDS011;57850;52.922;6.256;2023-07-22T02:45:59;9.90;;;6.00;;
12467;SDS011;57850;52.922;6.256;2023-07-22T02:48:27;10.15;;;6.07;;
12467;SDS011;57850;52.922;6.256;2023-07-22T02:50:55;10.75;;;6.13;;
12467;SDS011;57850;52.922;6.256;2023-07-22T02:53:21;9.60;;;5.28;;
12467;SDS011;57850;52.922;6.256;2023-07-22T02:55:48;9.05;;;6.00;;
12467;SDS011;57850;52.922;6.256;2023-07-22T02:58:15;9.68;;;5.32;;
12467;SDS011;57850;52.922;6.256;2023-07-22T03:00:41;9.18;;;5.25;;
12467;SDS011;57850;52.922;6.256;2023-07-22T03:03:09;6.47;;;4.85;;
12467;SDS011;57850;52.922;6.256;2023-07-22T03:05:35;10.02;;;5.18;;
12467;SDS011;57850;52.922;6.256;2023-07-22T03:08:04;8.80;;;5.38;;
12467;SDS011;57850;52.922;6.256;2023-07-22T03:10:32;9.75;;;5.65;;
12467;SDS011;57850;52.922;6.256;2023-07-22T03:12:58;9.95;;;6.18;;
12467;SDS011;57850;52.922;6.256;2023-07-22T03:15:28;10.02;;;6.20;;
12467;SDS011;57850;52.922;6.256;2023-07-22T03:17:56;12.40;;;6.30;;
12467;SDS011;57850;52.922;6.256;2023-07-22T03:20:24;10.48;;;5.85;;
12467;SDS011;57850;52.922;6.256;2023-07-22T03:22:51;10.45;;;5.85;;
12467;SDS011;57850;52.922;6.256;2023-07-22T03:25:19;12.15;;;6.22;;
12467;SDS011;57850;52.922;6.256;2023-07-22T03:27:46;11.27;;;6.00;;
12467;SDS011;57850;52.922;6.256;2023-07-22T03:30:13;11.88;;;6.40;;
12467;SDS011;57850;52.922;6.256;2023-07-22T03:32:41;12.05;;;6.40;;
12467;SDS011;57850;52.922;6.256;2023-07-22T03:35:09;12.70;;;6.20;;
12467;SDS011;57850;52.922;6.256;2023-07-22T03:37:37;11.50;;;6.75;;
12467;SDS011;57850;52.922;6.256;2023-07-22T03:40:04;12.25;;;6.90;;
12467;SDS011;57850;52.922;6.256;2023-07-22T03:42:38;12.55;;;7.30;;
12467;SDS011;57850;52.922;6.256;2023-07-22T03:45:05;11.02;;;6.15;;
12467;SDS011;57850;52.922;6.256;2023-07-22T03:47:33;13.15;;;7.38;;
12467;SDS011;57850;52.922;6.256;2023-07-22T03:50:00;11.88;;;6.93;;
12467;SDS011;57850;52.922;6.256;2023-07-22T03:52:26;11.95;;;7.38;;
12467;SDS011;57850;52.922;6.256;2023-07-22T03:54:53;13.95;;;7.15;;
12467;SDS011;57850;52.922;6.256;2023-07-22T03:57:22;10.85;;;7.20;;
12467;SDS011;57850;52.922;6.256;2023-07-22T03:59:52;11.23;;;6.75;;
12467;SDS011;57850;52.922;6.256;2023-07-22T04:02:19;11.52;;;6.78;;
12467;SDS011;57850;52.922;6.256;2023-07-22T04:04:46;10.55;;;6.47;;
12467;SDS011;57850;52.922;6.256;2023-07-22T04:07:12;10.18;;;6.78;;
12467;SDS011;57850;52.922;6.256;2023-07-22T04:09:39;14.13;;;7.32;;
12467;SDS011;57850;52.922;6.256;2023-07-22T04:12:07;11.27;;;7.05;;
12467;SDS011;57850;52.922;6.256;2023-07-22T04:14:34;13.18;;;7.30;;
12467;SDS011;57850;52.922;6.256;2023-07-22T04:17:01;11.23;;;7.00;;
12467;SDS011;57850;52.922;6.256;2023-07-22T04:19:29;11.35;;;7.22;;
12467;SDS011;57850;52.922;6.256;2023-07-22T04:21:55;11.57;;;7.63;;
12467;SDS011;57850;52.922;6.256;2023-07-22T04:24:22;15.57;;;8.40;;
12467;SDS011;57850;52.922;6.256;2023-07-22T04:26:50;14.02;;;7.68;;
12467;SDS011;57850;52.922;6.256;2023-07-22T04:29:17;15.15;;;9.15;;
12467;SDS011;57850;52.922;6.256;2023-07-22T04:31:45;16.83;;;9.55;;
12467;SDS011;57850;52.922;6.256;2023-07-22T04:34:13;14.35;;;8.23;;
12467;SDS011;57850;52.922;6.256;2023-07-22T04:36:39;17.35;;;9.55;;
12467;SDS011;57850;52.922;6.256;2023-07-22T04:39:06;15.25;;;8.88;;
12467;SDS011;57850;52.922;6.256;2023-07-22T04:41:33;15.77;;;8.63;;
12467;SDS011;57850;52.922;6.256;2023-07-22T04:43:59;15.70;;;9.13;;
12467;SDS011;57850;52.922;6.256;2023-07-22T04:46:26;17.20;;;8.88;;
12467;SDS011;57850;52.922;6.256;2023-07-22T04:48:53;15.63;;;9.57;;
12467;SDS011;57850;52.922;6.256;2023-07-22T04:51:22;16.13;;;8.80;;
12467;SDS011;57850;52.922;6.256;2023-07-22T04:53:48;17.23;;;9.15;;
12467;SDS011;57850;52.922;6.256;2023-07-22T04:56:15;15.32;;;8.77;;
12467;SDS011;57850;52.922;6.256;2023-07-22T04:58:42;16.55;;;9.90;;
12467;SDS011;57850;52.922;6.256;2023-07-22T05:01:09;17.65;;;9.25;;
12467;SDS011;57850;52.922;6.256;2023-07-22T05:03:37;18.05;;;9.23;;
12467;SDS011;57850;52.922;6.256;2023-07-22T05:06:03;18.27;;;9.80;;
12467;SDS011;57850;52.922;6.256;2023-07-22T05:08:31;19.35;;;11.52;;
12467;SDS011;57850;52.922;6.256;2023-07-22T05:10:58;25.08;;;15.45;;
12467;SDS011;57850;52.922;6.256;2023-07-22T05:13:24;35.72;;;21.77;;
12467;SDS011;57850;52.922;6.256;2023-07-22T05:15:51;51.65;;;28.75;;
12467;SDS011;57850;52.922;6.256;2023-07-22T05:18:18;66.15;;;37.60;;
12467;SDS011;57850;52.922;6.256;2023-07-22T05:20:44;55.83;;;32.55;;
12467;SDS011;57850;52.922;6.256;2023-07-22T05:23:11;53.80;;;30.40;;
12467;SDS011;57850;52.922;6.256;2023-07-22T05:25:39;45.33;;;27.02;;
12467;SDS011;57850;52.922;6.256;2023-07-22T05:28:05;44.05;;;25.10;;
12467;SDS011;57850;52.922;6.256;2023-07-22T05:30:32;34.95;;;21.10;;
12467;SDS011;57850;52.922;6.256;2023-07-22T05:32:58;29.60;;;18.83;;
12467;SDS011;57850;52.922;6.256;2023-07-22T05:35:25;30.20;;;16.17;;
12467;SDS011;57850;52.922;6.256;2023-07-22T05:37:52;24.73;;;14.60;;
12467;SDS011;57850;52.922;6.256;2023-07-22T05:40:18;24.40;;;14.35;;
12467;SDS011;57850;52.922;6.256;2023-07-22T05:42:46;30.35;;;15.55;;
12467;SDS011;57850;52.922;6.256;2023-07-22T05:45:13;23.88;;;13.80;;
12467;SDS011;57850;52.922;6.256;2023-07-22T05:47:41;25.35;;;14.65;;
12467;SDS011;57850;52.922;6.256;2023-07-22T05:50:08;22.58;;;13.55;;
12467;SDS011;57850;52.922;6.256;2023-07-22T05:52:34;23.95;;;14.18;;
12467;SDS011;57850;52.922;6.256;2023-07-22T05:55:01;24.38;;;13.65;;
12467;SDS011;57850;52.922;6.256;2023-07-22T05:57:28;23.15;;;11.50;;
12467;SDS011;57850;52.922;6.256;2023-07-22T05:59:56;27.70;;;12.13;;
12467;SDS011;57850;52.922;6.256;2023-07-22T06:02:22;21.65;;;12.20;;
12467;SDS011;57850;52.922;6.256;2023-07-22T06:04:49;22.48;;;13.50;;
12467;SDS011;57850;52.922;6.256;2023-07-22T06:07:16;20.80;;;12.25;;
12467;SDS011;57850;52.922;6.256;2023-07-22T06:09:43;20.80;;;12.02;;
12467;SDS011;57850;52.922;6.256;2023-07-22T06:12:10;23.15;;;11.95;;
12467;SDS011;57850;52.922;6.256;2023-07-22T06:14:37;21.75;;;11.43;;
12467;SDS011;57850;52.922;6.256;2023-07-22T06:17:05;26.02;;;12.48;;
12467;SDS011;57850;52.922;6.256;2023-07-22T06:19:31;21.25;;;12.30;;
12467;SDS011;57850;52.922;6.256;2023-07-22T06:21:58;19.65;;;11.15;;
12467;SDS011;57850;52.922;6.256;2023-07-22T06:24:25;21.45;;;12.93;;
12467;SDS011;57850;52.922;6.256;2023-07-22T06:26:51;22.88;;;13.43;;
12467;SDS011;57850;52.922;6.256;2023-07-22T06:29:18;17.92;;;11.32;;
12467;SDS011;57850;52.922;6.256;2023-07-22T06:31:45;20.98;;;12.38;;
12467;SDS011;57850;52.922;6.256;2023-07-22T06:34:13;23.13;;;13.05;;
12467;SDS011;57850;52.922;6.256;2023-07-22T06:36:39;20.92;;;12.25;;
12467;SDS011;57850;52.922;6.256;2023-07-22T06:39:06;18.67;;;12.38;;
12467;SDS011;57850;52.922;6.256;2023-07-22T06:41:32;20.60;;;11.90;;
12467;SDS011;57850;52.922;6.256;2023-07-22T06:43:59;22.25;;;12.10;;
12467;SDS011;57850;52.922;6.256;2023-07-22T06:46:25;22.00;;;12.05;;
12467;SDS011;57850;52.922;6.256;2023-07-22T06:48:52;18.35;;;10.95;;
12467;SDS011;57850;52.922;6.256;2023-07-22T06:51:20;18.40;;;10.70;;
12467;SDS011;57850;52.922;6.256;2023-07-22T06:53:47;19.67;;;11.18;;
12467;SDS011;57850;52.922;6.256;2023-07-22T06:56:14;15.52;;;9.95;;
12467;SDS011;57850;52.922;6.256;2023-07-22T06:58:40;17.15;;;10.65;;
12467;SDS011;57850;52.922;6.256;2023-07-22T07:01:07;18.48;;;9.93;;
12467;SDS011;57850;52.922;6.256;2023-07-22T07:03:33;14.10;;;8.68;;
12467;SDS011;57850;52.922;6.256;2023-07-22T07:06:00;15.73;;;9.82;;
12467;SDS011;57850;52.922;6.256;2023-07-22T07:08:28;16.50;;;9.68;;
12467;SDS011;57850;52.922;6.256;2023-07-22T07:10:55;12.40;;;8.27;;
12467;SDS011;57850;52.922;6.256;2023-07-22T07:13:22;13.55;;;8.88;;
12467;SDS011;57850;52.922;6.256;2023-07-22T07:15:49;12.77;;;8.93;;
12467;SDS011;57850;52.922;6.256;2023-07-22T07:18:15;14.50;;;9.43;;
12467;SDS011;57850;52.922;6.256;2023-07-22T07:20:41;18.38;;;10.02;;
12467;SDS011;57850;52.922;6.256;2023-07-22T07:23:08;13.75;;;8.90;;
12467;SDS011;57850;52.922;6.256;2023-07-22T07:25:36;14.88;;;9.57;;
12467;SDS011;57850;52.922;6.256;2023-07-22T07:28:03;15.13;;;9.40;;
12467;SDS011;57850;52.922;6.256;2023-07-22T07:30:30;15.45;;;10.13;;
12467;SDS011;57850;52.922;6.256;2023-07-22T07:32:57;17.40;;;10.18;;
12467;SDS011;57850;52.922;6.256;2023-07-22T07:35:24;13.43;;;9.52;;
12467;SDS011;57850;52.922;6.256;2023-07-22T07:37:50;16.80;;;10.15;;
12467;SDS011;57850;52.922;6.256;2023-07-22T07:40:17;17.92;;;10.77;;
12467;SDS011;57850;52.922;6.256;2023-07-22T07:42:46;15.18;;;10.43;;
12467;SDS011;57850;52.922;6.256;2023-07-22T07:45:12;18.88;;;10.38;;
12467;SDS011;57850;52.922;6.256;2023-07-22T07:47:39;17.08;;;10.15;;
12467;SDS011;57850;52.922;6.256;2023-07-22T07:50:06;17.20;;;10.57;;
12467;SDS011;57850;52.922;6.256;2023-07-22T07:52:33;17.80;;;11.57;;
12467;SDS011;57850;52.922;6.256;2023-07-22T07:55:00;18.50;;;11.32;;
12467;SDS011;57850;52.922;6.256;2023-07-22T07:57:26;15.32;;;10.25;;
12467;SDS011;57850;52.922;6.256;2023-07-22T07:59:54;17.73;;;10.93;;
12467;SDS011;57850;52.922;6.256;2023-07-22T08:02:21;15.63;;;10.77;;
12467;SDS011;57850;52.922;6.256;2023-07-22T08:04:47;22.17;;;11.55;;
12467;SDS011;57850;52.922;6.256;2023-07-22T08:07:15;18.08;;;10.82;;
12467;SDS011;57850;52.922;6.256;2023-07-22T08:09:42;15.32;;;10.30;;
12467;SDS011;57850;52.922;6.256;2023-07-22T08:12:09;16.42;;;10.77;;
12467;SDS011;57850;52.922;6.256;2023-07-22T08:14:35;14.75;;;10.35;;
12467;SDS011;57850;52.922;6.256;2023-07-22T08:17:04;19.00;;;11.10;;
12467;SDS011;57850;52.922;6.256;2023-07-22T08:19:31;17.25;;;10.93;;
12467;SDS011;57850;52.922;6.256;2023-07-22T08:21:57;17.27;;;11.55;;
12467;SDS011;57850;52.922;6.256;2023-07-22T08:24:24;18.95;;;12.25;;
12467;SDS011;57850;52.922;6.256;2023-07-22T08:26:50;18.70;;;12.02;;
12467;SDS011;57850;52.922;6.256;2023-07-22T08:29:17;17.52;;;12.18;;
12467;SDS011;57850;52.922;6.256;2023-07-22T08:31:44;20.35;;;12.27;;
12467;SDS011;57850;52.922;6.256;2023-07-22T08:34:11;23.08;;;12.60;;
12467;SDS011;57850;52.922;6.256;2023-07-22T08:36:38;20.98;;;13.07;;
12467;SDS011;57850;52.922;6.256;2023-07-22T08:39:05;23.77;;;13.20;;
12467;SDS011;57850;52.922;6.256;2023-07-22T08:41:32;19.48;;;12.90;;
12467;SDS011;57850;52.922;6.256;2023-07-22T08:43:59;21.75;;;12.57;;
12467;SDS011;57850;52.922;6.256;2023-07-22T08:46:27;27.50;;;13.80;;
12467;SDS011;57850;52.922;6.256;2023-07-22T08:48:55;23.77;;;12.70;;
12467;SDS011;57850;52.922;6.256;2023-07-22T08:51:26;20.27;;;12.88;;
12467;SDS011;57850;52.922;6.256;2023-07-22T08:53:54;22.80;;;13.40;;
12467;SDS011;57850;52.922;6.256;2023-07-22T08:56:23;21.25;;;12.55;;
12467;SDS011;57850;52.922;6.256;2023-07-22T08:58:50;18.35;;;12.15;;
12467;SDS011;57850;52.922;6.256;2023-07-22T09:01:17;19.27;;;11.60;;
12467;SDS011;57850;52.922;6.256;2023-07-22T09:03:44;18.55;;;11.18;;
12467;SDS011;57850;52.922;6.256;2023-07-22T09:06:13;20.83;;;11.40;;
12467;SDS011;57850;52.922;6.256;2023-07-22T09:08:41;17.10;;;10.77;;
12467;SDS011;57850;52.922;6.256;2023-07-22T09:11:08;14.68;;;8.63;;
12467;SDS011;57850;52.922;6.256;2023-07-22T09:13:35;12.93;;;7.60;;
12467;SDS011;57850;52.922;6.256;2023-07-22T09:16:05;10.35;;;7.85;;
12467;SDS011;57850;52.922;6.256;2023-07-22T09:18:33;12.60;;;7.53;;
12467;SDS011;57850;52.922;6.256;2023-07-22T09:20:59;9.63;;;6.70;;
12467;SDS011;57850;52.922;6.256;2023-07-22T09:23:32;9.02;;;5.63;;
12467;SDS011;57850;52.922;6.256;2023-07-22T09:26:09;7.45;;;4.97;;
12467;SDS011;57850;52.922;6.256;2023-07-22T09:28:53;8.20;;;4.10;;
12467;SDS011;57850;52.922;6.256;2023-07-22T09:31:21;4.55;;;3.55;;
12467;SDS011;57850;52.922;6.256;2023-07-22T09:33:48;4.65;;;3.88;;
12467;SDS011;57850;52.922;6.256;2023-07-22T09:36:16;4.93;;;3.88;;
12467;SDS011;57850;52.922;6.256;2023-07-22T09:38:42;5.75;;;4.40;;
12467;SDS011;57850;52.922;6.256;2023-07-22T09:41:10;5.63;;;4.18;;
12467;SDS011;57850;52.922;6.256;2023-07-22T09:43:38;6.60;;;4.85;;
12467;SDS011;57850;52.922;6.256;2023-07-22T09:46:06;7.22;;;5.30;;
12467;SDS011;57850;52.922;6.256;2023-07-22T09:48:39;6.95;;;5.10;;
12467;SDS011;57850;52.922;6.256;2023-07-22T09:51:10;7.60;;;5.38;;
12467;SDS011;57850;52.922;6.256;2023-07-22T09:53:38;6.82;;;4.10;;
12467;SDS011;57850;52.922;6.256;2023-07-22T09:56:11;8.70;;;5.40;;
12467;SDS011;57850;52.922;6.256;2023-07-22T09:58:37;5.80;;;4.65;;
12467;SDS011;57850;52.922;6.256;2023-07-22T10:01:05;7.43;;;4.65;;
12467;SDS011;57850;52.922;6.256;2023-07-22T10:03:33;6.05;;;4.63;;
12467;SDS011;57850;52.922;6.256;2023-07-22T10:06:03;7.80;;;5.20;;
12467;SDS011;57850;52.922;6.256;2023-07-22T10:08:32;6.68;;;4.38;;
12467;SDS011;57850;52.922;6.256;2023-07-22T10:11:00;5.88;;;4.80;;
12467;SDS011;57850;52.922;6.256;2023-07-22T10:13:32;8.35;;;4.90;;
12467;SDS011;57850;52.922;6.256;2023-07-22T10:15:59;7.80;;;5.57;;
12467;SDS011;57850;52.922;6.256;2023-07-22T10:18:27;8.40;;;5.07;;
12467;SDS011;57850;52.922;6.256;2023-07-22T10:20:55;8.27;;;5.70;;
12467;SDS011;57850;52.922;6.256;2023-07-22T10:23:23;9.18;;;6.50;;
12467;SDS011;57850;52.922;6.256;2023-07-22T10:25:52;12.82;;;7.97;;
12467;SDS011;57850;52.922;6.256;2023-07-22T10:28:19;11.88;;;7.53;;
12467;SDS011;57850;52.922;6.256;2023-07-22T10:30:48;9.68;;;7.65;;
12467;SDS011;57850;52.922;6.256;2023-07-22T10:33:16;16.17;;;7.97;;
12467;SDS011;57850;52.922;6.256;2023-07-22T10:35:43;15.77;;;9.52;;
12467;SDS011;57850;52.922;6.256;2023-07-22T10:38:11;12.45;;;9.02;;
12467;SDS011;57850;52.922;6.256;2023-07-22T10:40:45;13.07;;;9.25;;
12467;SDS011;57850;52.922;6.256;2023-07-22T10:43:14;16.27;;;10.75;;
12467;SDS011;57850;52.922;6.256;2023-07-22T10:45:43;15.40;;;10.13;;
12467;SDS011;57850;52.922;6.256;2023-07-22T10:48:17;17.08;;;11.02;;
12467;SDS011;57850;52.922;6.256;2023-07-22T10:50:44;16.20;;;11.45;;
12467;SDS011;57850;52.922;6.256;2023-07-22T10:53:13;22.17;;;12.32;;
12467;SDS011;57850;52.922;6.256;2023-07-22T10:56:04;19.58;;;13.32;;
12467;SDS011;57850;52.922;6.256;2023-07-22T10:58:32;19.60;;;12.57;;
12467;SDS011;57850;52.922;6.256;2023-07-22T11:04:06;19.48;;;12.80;;
12467;SDS011;57850;52.922;6.256;2023-07-22T11:06:36;19.08;;;13.52;;
12467;SDS011;57850;52.922;6.256;2023-07-22T11:09:04;18.27;;;13.27;;
12467;SDS011;57850;52.922;6.256;2023-07-22T11:11:37;17.20;;;13.00;;
12467;SDS011;57850;52.922;6.256;2023-07-22T11:14:15;18.05;;;12.18;;
12467;SDS011;57850;52.922;6.256;2023-07-22T11:16:42;18.88;;;13.00;;
12467;SDS011;57850;52.922;6.256;2023-07-22T11:19:10;17.45;;;13.07;;
12467;SDS011;57850;52.922;6.256;2023-07-22T11:21:39;19.67;;;12.77;;
12467;SDS011;57850;52.922;6.256;2023-07-22T11:24:06;15.75;;;11.77;;
12467;SDS011;57850;52.922;6.256;2023-07-22T11:26:33;18.05;;;11.70;;
12467;SDS011;57850;52.922;6.256;2023-07-22T11:29:00;15.85;;;10.80;;
12467;SDS011;57850;52.922;6.256;2023-07-22T11:31:30;13.48;;;10.18;;
12467;SDS011;57850;52.922;6.256;2023-07-22T11:33:58;16.83;;;10.15;;
12467;SDS011;57850;52.922;6.256;2023-07-22T11:36:26;14.65;;;10.57;;
12467;SDS011;57850;52.922;6.256;2023-07-22T11:38:52;14.35;;;10.13;;
12467;SDS011;57850;52.922;6.256;2023-07-22T11:41:19;12.27;;;9.88;;
12467;SDS011;57850;52.922;6.256;2023-07-22T11:43:47;13.50;;;9.18;;
12467;SDS011;57850;52.922;6.256;2023-07-22T11:46:14;12.60;;;9.20;;
12467;SDS011;57850;52.922;6.256;2023-07-22T11:48:48;12.43;;;9.90;;
12467;SDS011;57850;52.922;6.256;2023-07-22T11:51:16;12.43;;;9.15;;
12467;SDS011;57850;52.922;6.256;2023-07-22T11:53:47;16.42;;;10.45;;
12467;SDS011;57850;52.922;6.256;2023-07-22T11:56:17;14.85;;;10.30;;
12467;SDS011;57850;52.922;6.256;2023-07-22T11:58:48;15.38;;;10.93;;
12467;SDS011;57850;52.922;6.256;2023-07-22T12:01:16;15.73;;;11.57;;
12467;SDS011;57850;52.922;6.256;2023-07-22T12:03:43;19.00;;;10.55;;
12467;SDS011;57850;52.922;6.256;2023-07-22T12:06:10;13.27;;;10.70;;
12467;SDS011;57850;52.922;6.256;2023-07-22T12:08:42;14.55;;;11.88;;
12467;SDS011;57850;52.922;6.256;2023-07-22T12:11:16;15.48;;;12.20;;
12467;SDS011;57850;52.922;6.256;2023-07-22T12:13:44;18.08;;;13.20;;
12467;SDS011;57850;52.922;6.256;2023-07-22T12:16:21;15.85;;;12.77;;
12467;SDS011;57850;52.922;6.256;2023-07-22T12:18:49;17.67;;;12.68;;
12467;SDS011;57850;52.922;6.256;2023-07-22T12:21:20;18.55;;;14.18;;
12467;SDS011;57850;52.922;6.256;2023-07-22T12:23:47;18.70;;;12.73;;
12467;SDS011;57850;52.922;6.256;2023-07-22T12:26:14;17.63;;;13.50;;
12467;SDS011;57850;52.922;6.256;2023-07-22T12:28:42;20.77;;;13.70;;
12467;SDS011;57850;52.922;6.256;2023-07-22T12:31:09;18.10;;;13.68;;
12467;SDS011;57850;52.922;6.256;2023-07-22T12:33:35;22.20;;;14.43;;
12467;SDS011;57850;52.922;6.256;2023-07-22T12:36:02;19.38;;;14.73;;
12467;SDS011;57850;52.922;6.256;2023-07-22T12:38:29;16.40;;;12.50;;
12467;SDS011;57850;52.922;6.256;2023-07-22T12:40:56;19.80;;;13.02;;
12467;SDS011;57850;52.922;6.256;2023-07-22T12:43:23;16.85;;;12.70;;
12467;SDS011;57850;52.922;6.256;2023-07-22T12:45:51;14.60;;;11.50;;
12467;SDS011;57850;52.922;6.256;2023-07-22T12:48:17;17.40;;;11.73;;
12467;SDS011;57850;52.922;6.256;2023-07-22T12:50:44;19.23;;;14.35;;
12467;SDS011;57850;52.922;6.256;2023-07-22T12:53:12;17.60;;;14.18;;
12467;SDS011;57850;52.922;6.256;2023-07-22T12:55:39;18.90;;;14.48;;
12467;SDS011;57850;52.922;6.256;2023-07-22T12:58:05;18.10;;;15.30;;
12467;SDS011;57850;52.922;6.256;2023-07-22T13:00:32;22.45;;;13.63;;
12467;SDS011;57850;52.922;6.256;2023-07-22T13:03:00;19.55;;;14.10;;
12467;SDS011;57850;52.922;6.256;2023-07-22T13:05:27;16.70;;;13.40;;
12467;SDS011;57850;52.922;6.256;2023-07-22T13:07:53;17.92;;;13.43;;
12467;SDS011;57850;52.922;6.256;2023-07-22T13:10:21;16.25;;;12.40;;
12467;SDS011;57850;52.922;6.256;2023-07-22T13:12:50;17.50;;;12.57;;
12467;SDS011;57850;52.922;6.256;2023-07-22T13:15:17;14.38;;;11.55;;
12467;SDS011;57850;52.922;6.256;2023-07-22T13:17:43;15.65;;;11.77;;
12467;SDS011;57850;52.922;6.256;2023-07-22T13:20:12;14.88;;;10.93;;
12467;SDS011;57850;52.922;6.256;2023-07-22T13:22:39;13.57;;;10.73;;
12467;SDS011;57850;52.922;6.256;2023-07-22T13:25:06;15.27;;;10.60;;
12467;SDS011;57850;52.922;6.256;2023-07-22T13:27:34;14.65;;;11.23;;
12467;SDS011;57850;52.922;6.256;2023-07-22T13:30:00;12.10;;;10.07;;
12467;SDS011;57850;52.922;6.256;2023-07-22T13:32:27;12.55;;;10.15;;
12467;SDS011;57850;52.922;6.256;2023-07-22T13:34:53;14.05;;;9.48;;
12467;SDS011;57850;52.922;6.256;2023-07-22T13:37:22;10.82;;;8.40;;
12467;SDS011;57850;52.922;6.256;2023-07-22T13:39:49;9.68;;;8.38;;
12467;SDS011;57850;52.922;6.256;2023-07-22T13:42:16;9.32;;;8.00;;
12467;SDS011;57850;52.922;6.256;2023-07-22T13:44:43;9.13;;;7.75;;
12467;SDS011;57850;52.922;6.256;2023-07-22T13:47:09;7.53;;;6.80;;
12467;SDS011;57850;52.922;6.256;2023-07-22T13:49:36;9.77;;;6.75;;
12467;SDS011;57850;52.922;6.256;2023-07-22T13:52:03;9.82;;;7.32;;
12467;SDS011;57850;52.922;6.256;2023-07-22T13:54:31;7.47;;;6.60;;
12467;SDS011;57850;52.922;6.256;2023-07-22T13:56:57;8.75;;;6.82;;
12467;SDS011;57850;52.922;6.256;2023-07-22T13:59:24;7.13;;;6.20;;
12467;SDS011;57850;52.922;6.256;2023-07-22T14:01:51;10.73;;;6.90;;
12467;SDS011;57850;52.922;6.256;2023-07-22T14:04:17;10.57;;;7.22;;
12467;SDS011;57850;52.922;6.256;2023-07-22T14:06:44;8.82;;;6.53;;
12467;SDS011;57850;52.922;6.256;2023-07-22T14:09:10;10.68;;;6.13;;
12467;SDS011;57850;52.922;6.256;2023-07-22T14:11:38;7.32;;;6.22;;
12467;SDS011;57850;52.922;6.256;2023-07-22T14:14:05;11.25;;;5.97;;
12467;SDS011;57850;52.922;6.256;2023-07-22T14:16:31;7.25;;;6.15;;
12467;SDS011;57850;52.922;6.256;2023-07-22T14:18:58;9.25;;;6.15;;
12467;SDS011;57850;52.922;6.256;2023-07-22T14:21:25;14.43;;;6.53;;
12467;SDS011;57850;52.922;6.256;2023-07-22T14:23:51;8.10;;;5.63;;
12467;SDS011;57850;52.922;6.256;2023-07-22T14:26:18;9.25;;;5.70;;
12467;SDS011;57850;52.922;6.256;2023-07-22T14:28:46;8.52;;;5.53;;
12467;SDS011;57850;52.922;6.256;2023-07-22T14:31:13;9.60;;;5.60;;
12467;SDS011;57850;52.922;6.256;2023-07-22T14:33:40;6.93;;;4.03;;
12467;SDS011;57850;52.922;6.256;2023-07-22T14:36:06;7.38;;;3.45;;